sensor_id;sensor_type;location;lat;lon;timestamp;P1;durP1;ratioP1;P2;durP2;ratioP2
12112;SDS011;6120;52.250;8.478;2023-03-23T00:01:07;14.32;;;6.05;;
12112;SDS011;6120;52.250;8.478;2023-03-23T00:03:44;9.93;;;5.57;;
12112;SDS011;6120;52.250;8.478;2023-03-23T00:06:11;10.07;;;5.97;;
12112;SDS011;6120;52.250;8.478;2023-03-23T00:08:42;11.63;;;5.78;;
12112;SDS011;6120;52.250;8.478;2023-03-23T00:11:12;11.88;;;5.28;;
12112;SDS011;6120;52.250;8.478;2023-03-23T00:13:42;8.55;;;5.25;;
12112;SDS011;6120;52.250;8.478;2023-03-23T00:16:08;11.57;;;5.63;;
12112;SDS011;6120;52.250;8.478;2023-03-23T00:18:43;16.67;;;5.72;;
12112;SDS011;6120;52.250;8.478;2023-03-23T00:21:12;13.43;;;5.60;;
12112;SDS011;6120;52.250;8.478;2023-03-23T00:23:37;13.70;;;5.35;;
12112;SDS011;6120;52.250;8.478;2023-03-23T00:26:04;8.65;;;5.07;;
12112;SDS011;6120;52.250;8.478;2023-03-23T00:28:30;9.65;;;5.30;;
12112;SDS011;6120;52.250;8.478;2023-03-23T00:31:03;10.95;;;5.47;;
12112;SDS011;6120;52.250;8.478;2023-03-23T00:33:31;8.98;;;5.95;;
12112;SDS011;6120;52.250;8.478;2023-03-23T00:36:06;10.52;;;5.90;;
12112;SDS011;6120;52.250;8.478;2023-03-23T00:38:34;11.48;;;6.38;;
12112;SDS011;6120;52.250;8.478;2023-03-23T00:41:00;10.65;;;6.15;;
12112;SDS011;6120;52.250;8.478;2023-03-23T00:43:27;11.60;;;6.45;;
12112;SDS011;6120;52.250;8.478;2023-03-23T00:45:54;10.82;;;6.15;;
12112;SDS011;6120;52.250;8.478;2023-03-23T00:48:21;14.93;;;6.30;;
12112;SDS011;6120;52.250;8.478;2023-03-23T00:50:47;12.77;;;7.00;;
12112;SDS011;6120;52.250;8.478;2023-03-23T00:53:14;10.93;;;5.78;;
12112;SDS011;6120;52.250;8.478;2023-03-23T00:55:46;13.55;;;6.30;;
12112;SDS011;6120;52.250;8.478;2023-03-23T00:58:13;14.82;;;6.75;;
12112;SDS011;6120;52.250;8.478;2023-03-23T01:00:39;12.55;;;6.70;;
12112;SDS011;6120;52.250;8.478;2023-03-23T01:03:05;16.25;;;6.93;;
12112;SDS011;6120;52.250;8.478;2023-03-23T01:05:35;10.82;;;6.45;;
12112;SDS011;6120;52.250;8.478;2023-03-23T01:08:02;13.32;;;7.13;;
12112;SDS011;6120;52.250;8.478;2023-03-23T01:10:28;11.13;;;6.63;;
12112;SDS011;6120;52.250;8.478;2023-03-23T01:12:58;16.92;;;6.90;;
12112;SDS011;6120;52.250;8.478;2023-03-23T01:15:24;12.40;;;6.45;;
12112;SDS011;6120;52.250;8.478;2023-03-23T01:17:49;15.07;;;7.00;;
12112;SDS011;6120;52.250;8.478;2023-03-23T01:20:15;11.63;;;6.47;;
12112;SDS011;6120;52.250;8.478;2023-03-23T01:22:41;13.70;;;6.18;;
12112;SDS011;6120;52.250;8.478;2023-03-23T01:25:08;14.60;;;7.18;;
12112;SDS011;6120;52.250;8.478;2023-03-23T01:27:34;10.95;;;6.63;;
12112;SDS011;6120;52.250;8.478;2023-03-23T01:30:00;12.55;;;6.63;;
12112;SDS011;6120;52.250;8.478;2023-03-23T01:32:25;9.88;;;5.78;;
12112;SDS011;6120;52.250;8.478;2023-03-23T01:34:51;11.02;;;6.10;;
12112;SDS011;6120;52.250;8.478;2023-03-23T01:37:16;13.32;;;6.13;;
12112;SDS011;6120;52.250;8.478;2023-03-23T01:39:42;9.02;;;5.65;;
12112;SDS011;6120;52.250;8.478;2023-03-23T01:42:09;11.55;;;5.50;;
12112;SDS011;6120;52.250;8.478;2023-03-23T01:47:00;10.02;;;5.70;;
12112;SDS011;6120;52.250;8.478;2023-03-23T01:49:29;10.38;;;4.97;;
12112;SDS011;6120;52.250;8.478;2023-03-23T01:52:09;8.48;;;4.93;;
12112;SDS011;6120;52.250;8.478;2023-03-23T01:54:42;9.88;;;4.65;;
12112;SDS011;6120;52.250;8.478;2023-03-23T01:57:14;15.27;;;5.50;;
12112;SDS011;6120;52.250;8.478;2023-03-23T01:59:41;8.77;;;4.45;;
12112;SDS011;6120;52.250;8.478;2023-03-23T02:02:10;10.10;;;4.07;;
12112;SDS011;6120;52.250;8.478;2023-03-23T02:04:36;8.35;;;4.82;;
12112;SDS011;6120;52.250;8.478;2023-03-23T02:07:02;8.95;;;4.80;;
12112;SDS011;6120;52.250;8.478;2023-03-23T02:09:28;8.20;;;4.40;;
12112;SDS011;6120;52.250;8.478;2023-03-23T02:11:54;8.90;;;4.57;;
12112;SDS011;6120;52.250;8.478;2023-03-23T02:14:19;7.03;;;3.25;;
12112;SDS011;6120;52.250;8.478;2023-03-23T02:16:58;6.50;;;4.15;;
12112;SDS011;6120;52.250;8.478;2023-03-23T02:34:17;10.30;;;3.85;;
12112;SDS011;6120;52.250;8.478;2023-03-23T02:36:46;12.63;;;3.70;;
12112;SDS011;6120;52.250;8.478;2023-03-23T02:39:24;6.25;;;3.80;;
12112;SDS011;6120;52.250;8.478;2023-03-23T02:41:52;8.48;;;3.63;;
12112;SDS011;6120;52.250;8.478;2023-03-23T02:44:22;7.43;;;3.30;;
12112;SDS011;6120;52.250;8.478;2023-03-23T02:46:48;5.38;;;3.35;;
12112;SDS011;6120;52.250;8.478;2023-03-23T02:49:15;7.20;;;3.38;;
12112;SDS011;6120;52.250;8.478;2023-03-23T02:51:42;7.10;;;3.38;;
12112;SDS011;6120;52.250;8.478;2023-03-23T02:56:35;6.95;;;3.15;;
12112;SDS011;6120;52.250;8.478;2023-03-23T02:59:01;5.78;;;3.30;;
12112;SDS011;6120;52.250;8.478;2023-03-23T03:03:57;8.77;;;3.10;;
12112;SDS011;6120;52.250;8.478;2023-03-23T03:06:33;7.35;;;3.05;;
12112;SDS011;6120;52.250;8.478;2023-03-23T03:09:03;5.40;;;3.20;;
12112;SDS011;6120;52.250;8.478;2023-03-23T03:11:33;4.95;;;2.50;;
12112;SDS011;6120;52.250;8.478;2023-03-23T03:14:08;6.85;;;3.00;;
12112;SDS011;6120;52.250;8.478;2023-03-23T03:16:37;6.78;;;2.95;;
12112;SDS011;6120;52.250;8.478;2023-03-23T03:19:10;3.75;;;2.30;;
12112;SDS011;6120;52.250;8.478;2023-03-23T03:21:45;5.13;;;2.70;;
12112;SDS011;6120;52.250;8.478;2023-03-23T03:24:13;6.63;;;2.40;;
12112;SDS011;6120;52.250;8.478;2023-03-23T03:29:13;2.90;;;2.00;;
12112;SDS011;6120;52.250;8.478;2023-03-23T03:31:42;4.05;;;2.15;;
12112;SDS011;6120;52.250;8.478;2023-03-23T03:34:10;4.68;;;2.38;;
12112;SDS011;6120;52.250;8.478;2023-03-23T03:36:45;3.92;;;2.20;;
12112;SDS011;6120;52.250;8.478;2023-03-23T03:39:12;4.25;;;2.28;;
12112;SDS011;6120;52.250;8.478;2023-03-23T03:41:41;3.42;;;2.30;;
12112;SDS011;6120;52.250;8.478;2023-03-23T03:44:07;8.27;;;2.13;;
12112;SDS011;6120;52.250;8.478;2023-03-23T03:46:33;5.30;;;2.00;;
12112;SDS011;6120;52.250;8.478;2023-03-23T03:49:00;3.55;;;2.13;;
12112;SDS011;6120;52.250;8.478;2023-03-23T03:51:27;2.85;;;1.45;;
12112;SDS011;6120;52.250;8.478;2023-03-23T03:53:53;5.03;;;1.90;;
12112;SDS011;6120;52.250;8.478;2023-03-23T03:56:19;4.60;;;1.95;;
12112;SDS011;6120;52.250;8.478;2023-03-23T03:58:45;4.38;;;2.05;;
12112;SDS011;6120;52.250;8.478;2023-03-23T04:03:40;2.45;;;1.40;;
12112;SDS011;6120;52.250;8.478;2023-03-23T04:06:06;3.75;;;1.90;;
12112;SDS011;6120;52.250;8.478;2023-03-23T04:08:33;4.05;;;1.50;;
12112;SDS011;6120;52.250;8.478;2023-03-23T04:11:00;4.43;;;1.73;;
12112;SDS011;6120;52.250;8.478;2023-03-23T04:13:26;4.38;;;2.10;;
12112;SDS011;6120;52.250;8.478;2023-03-23T04:15:52;4.55;;;1.63;;
12112;SDS011;6120;52.250;8.478;2023-03-23T04:18:17;4.88;;;1.70;;
12112;SDS011;6120;52.250;8.478;2023-03-23T04:20:44;3.35;;;2.00;;
12112;SDS011;6120;52.250;8.478;2023-03-23T04:23:15;4.00;;;2.00;;
12112;SDS011;6120;52.250;8.478;2023-03-23T04:25:48;3.35;;;1.65;;
12112;SDS011;6120;52.250;8.478;2023-03-23T04:28:15;5.05;;;1.80;;
12112;SDS011;6120;52.250;8.478;2023-03-23T04:30:44;4.90;;;2.17;;
12112;SDS011;6120;52.250;8.478;2023-03-23T04:33:10;3.35;;;1.60;;
12112;SDS011;6120;52.250;8.478;2023-03-23T04:35:39;3.45;;;1.92;;
12112;SDS011;6120;52.250;8.478;2023-03-23T04:38:06;5.10;;;1.90;;
12112;SDS011;6120;52.250;8.478;2023-03-23T04:40:32;3.95;;;1.75;;
12112;SDS011;6120;52.250;8.478;2023-03-23T04:43:01;5.82;;;1.70;;
12112;SDS011;6120;52.250;8.478;2023-03-23T04:45:30;3.88;;;1.90;;
12112;SDS011;6120;52.250;8.478;2023-03-23T04:47:57;3.70;;;1.70;;
12112;SDS011;6120;52.250;8.478;2023-03-23T04:50:23;5.47;;;1.90;;
12112;SDS011;6120;52.250;8.478;2023-03-23T04:52:52;2.35;;;1.58;;
12112;SDS011;6120;52.250;8.478;2023-03-23T04:55:19;5.43;;;1.65;;
12112;SDS011;6120;52.250;8.478;2023-03-23T04:57:46;5.35;;;2.25;;
12112;SDS011;6120;52.250;8.478;2023-03-23T05:00:12;3.05;;;1.88;;
12112;SDS011;6120;52.250;8.478;2023-03-23T05:02:41;3.55;;;1.77;;
12112;SDS011;6120;52.250;8.478;2023-03-23T05:05:12;5.57;;;1.70;;
12112;SDS011;6120;52.250;8.478;2023-03-23T05:07:39;4.00;;;1.83;;
12112;SDS011;6120;52.250;8.478;2023-03-23T05:10:05;3.17;;;1.83;;
12112;SDS011;6120;52.250;8.478;2023-03-23T05:12:33;4.45;;;1.75;;
12112;SDS011;6120;52.250;8.478;2023-03-23T05:14:59;4.13;;;1.85;;
12112;SDS011;6120;52.250;8.478;2023-03-23T05:17:24;3.30;;;1.77;;
12112;SDS011;6120;52.250;8.478;2023-03-23T05:19:51;2.65;;;1.80;;
12112;SDS011;6120;52.250;8.478;2023-03-23T05:22:16;3.47;;;1.80;;
12112;SDS011;6120;52.250;8.478;2023-03-23T05:24:42;2.88;;;1.45;;
12112;SDS011;6120;52.250;8.478;2023-03-23T05:27:11;4.97;;;2.10;;
12112;SDS011;6120;52.250;8.478;2023-03-23T05:32:05;3.72;;;2.03;;
12112;SDS011;6120;52.250;8.478;2023-03-23T05:34:33;4.22;;;2.20;;
12112;SDS011;6120;52.250;8.478;2023-03-23T05:37:00;5.68;;;2.00;;
12112;SDS011;6120;52.250;8.478;2023-03-23T05:39:27;3.15;;;1.83;;
12112;SDS011;6120;52.250;8.478;2023-03-23T05:41:53;3.42;;;2.00;;
12112;SDS011;6120;52.250;8.478;2023-03-23T05:44:19;3.67;;;1.67;;
12112;SDS011;6120;52.250;8.478;2023-03-23T05:46:45;4.55;;;1.80;;
12112;SDS011;6120;52.250;8.478;2023-03-23T05:49:10;5.60;;;2.05;;
12112;SDS011;6120;52.250;8.478;2023-03-23T05:51:36;4.13;;;1.75;;
12112;SDS011;6120;52.250;8.478;2023-03-23T05:54:02;4.50;;;2.13;;
12112;SDS011;6120;52.250;8.478;2023-03-23T05:56:28;5.05;;;2.30;;
12112;SDS011;6120;52.250;8.478;2023-03-23T05:58:57;3.00;;;1.83;;
12112;SDS011;6120;52.250;8.478;2023-03-23T06:01:23;3.92;;;2.03;;
12112;SDS011;6120;52.250;8.478;2023-03-23T06:03:50;3.58;;;1.88;;
12112;SDS011;6120;52.250;8.478;2023-03-23T06:06:19;7.45;;;2.38;;
12112;SDS011;6120;52.250;8.478;2023-03-23T06:08:45;3.78;;;1.83;;
12112;SDS011;6120;52.250;8.478;2023-03-23T06:11:11;2.75;;;1.60;;
12112;SDS011;6120;52.250;8.478;2023-03-23T06:13:38;4.32;;;1.92;;
12112;SDS011;6120;52.250;8.478;2023-03-23T06:16:04;2.83;;;1.98;;
12112;SDS011;6120;52.250;8.478;2023-03-23T06:18:29;3.90;;;2.30;;
12112;SDS011;6120;52.250;8.478;2023-03-23T06:20:58;4.07;;;2.38;;
12112;SDS011;6120;52.250;8.478;2023-03-23T06:23:25;4.28;;;2.28;;
12112;SDS011;6120;52.250;8.478;2023-03-23T06:25:55;3.13;;;1.77;;
12112;SDS011;6120;52.250;8.478;2023-03-23T06:28:24;5.20;;;2.10;;
12112;SDS011;6120;52.250;8.478;2023-03-23T06:30:49;5.30;;;2.17;;
12112;SDS011;6120;52.250;8.478;2023-03-23T06:33:15;3.45;;;1.75;;
12112;SDS011;6120;52.250;8.478;2023-03-23T06:35:40;5.68;;;1.98;;
12112;SDS011;6120;52.250;8.478;2023-03-23T06:38:06;5.20;;;1.80;;
12112;SDS011;6120;52.250;8.478;2023-03-23T06:40:31;4.78;;;2.10;;
12112;SDS011;6120;52.250;8.478;2023-03-23T06:42:57;3.75;;;1.92;;
12112;SDS011;6120;52.250;8.478;2023-03-23T06:45:24;4.45;;;2.13;;
12112;SDS011;6120;52.250;8.478;2023-03-23T06:47:50;5.68;;;2.15;;
12112;SDS011;6120;52.250;8.478;2023-03-23T06:50:16;4.88;;;2.08;;
12112;SDS011;6120;52.250;8.478;2023-03-23T06:52:45;4.15;;;1.95;;
12112;SDS011;6120;52.250;8.478;2023-03-23T06:55:12;4.65;;;2.28;;
12112;SDS011;6120;52.250;8.478;2023-03-23T06:57:38;4.22;;;2.15;;
12112;SDS011;6120;52.250;8.478;2023-03-23T07:00:04;5.53;;;2.50;;
12112;SDS011;6120;52.250;8.478;2023-03-23T07:02:32;4.07;;;2.28;;
12112;SDS011;6120;52.250;8.478;2023-03-23T07:04:58;4.55;;;2.20;;
12112;SDS011;6120;52.250;8.478;2023-03-23T07:07:23;3.92;;;2.20;;
12112;SDS011;6120;52.250;8.478;2023-03-23T07:09:49;4.25;;;2.05;;
12112;SDS011;6120;52.250;8.478;2023-03-23T07:12:14;6.72;;;2.17;;
12112;SDS011;6120;52.250;8.478;2023-03-23T07:14:40;4.07;;;2.35;;
12112;SDS011;6120;52.250;8.478;2023-03-23T07:17:06;4.03;;;1.90;;
12112;SDS011;6120;52.250;8.478;2023-03-23T07:19:33;4.95;;;2.25;;
12112;SDS011;6120;52.250;8.478;2023-03-23T07:21:59;4.18;;;2.00;;
12112;SDS011;6120;52.250;8.478;2023-03-23T07:24:25;6.43;;;2.20;;
12112;SDS011;6120;52.250;8.478;2023-03-23T07:26:51;4.03;;;1.95;;
12112;SDS011;6120;52.250;8.478;2023-03-23T07:29:17;5.40;;;1.98;;
12112;SDS011;6120;52.250;8.478;2023-03-23T07:31:43;6.45;;;1.88;;
12112;SDS011;6120;52.250;8.478;2023-03-23T07:34:08;3.13;;;1.65;;
12112;SDS011;6120;52.250;8.478;2023-03-23T07:36:34;3.00;;;1.75;;
12112;SDS011;6120;52.250;8.478;2023-03-23T07:39:02;4.72;;;2.05;;
12112;SDS011;6120;52.250;8.478;2023-03-23T07:41:30;3.47;;;1.90;;
12112;SDS011;6120;52.250;8.478;2023-03-23T07:43:56;4.72;;;2.05;;
12112;SDS011;6120;52.250;8.478;2023-03-23T07:46:22;4.25;;;2.03;;
12112;SDS011;6120;52.250;8.478;2023-03-23T07:48:47;4.05;;;2.50;;
12112;SDS011;6120;52.250;8.478;2023-03-23T07:51:14;6.70;;;2.25;;
12112;SDS011;6120;52.250;8.478;2023-03-23T07:53:44;6.45;;;1.90;;
12112;SDS011;6120;52.250;8.478;2023-03-23T07:56:13;3.50;;;2.00;;
12112;SDS011;6120;52.250;8.478;2023-03-23T07:58:43;2.72;;;1.70;;
12112;SDS011;6120;52.250;8.478;2023-03-23T08:01:09;5.07;;;1.95;;
12112;SDS011;6120;52.250;8.478;2023-03-23T08:03:35;4.82;;;2.22;;
12112;SDS011;6120;52.250;8.478;2023-03-23T08:06:00;7.13;;;2.15;;
12112;SDS011;6120;52.250;8.478;2023-03-23T08:08:26;3.65;;;1.83;;
12112;SDS011;6120;52.250;8.478;2023-03-23T08:10:52;4.47;;;1.85;;
12112;SDS011;6120;52.250;8.478;2023-03-23T08:13:17;6.10;;;2.08;;
12112;SDS011;6120;52.250;8.478;2023-03-23T08:15:43;5.15;;;2.22;;
12112;SDS011;6120;52.250;8.478;2023-03-23T08:18:09;5.55;;;2.05;;
12112;SDS011;6120;52.250;8.478;2023-03-23T08:20:35;4.03;;;2.15;;
12112;SDS011;6120;52.250;8.478;2023-03-23T08:23:01;5.55;;;2.20;;
12112;SDS011;6120;52.250;8.478;2023-03-23T08:25:28;4.80;;;1.95;;
12112;SDS011;6120;52.250;8.478;2023-03-23T08:27:56;8.80;;;2.65;;
12112;SDS011;6120;52.250;8.478;2023-03-23T08:30:23;5.75;;;2.47;;
12112;SDS011;6120;52.250;8.478;2023-03-23T08:32:51;5.73;;;1.90;;
12112;SDS011;6120;52.250;8.478;2023-03-23T08:35:17;4.22;;;2.20;;
12112;SDS011;6120;52.250;8.478;2023-03-23T08:37:43;5.65;;;2.38;;
12112;SDS011;6120;52.250;8.478;2023-03-23T08:40:09;5.53;;;2.47;;
12112;SDS011;6120;52.250;8.478;2023-03-23T08:42:40;4.30;;;2.00;;
12112;SDS011;6120;52.250;8.478;2023-03-23T08:47:34;5.82;;;2.45;;
12112;SDS011;6120;52.250;8.478;2023-03-23T08:50:01;4.53;;;2.40;;
12112;SDS011;6120;52.250;8.478;2023-03-23T08:52:28;3.60;;;1.90;;
12112;SDS011;6120;52.250;8.478;2023-03-23T08:54:54;6.78;;;2.15;;
12112;SDS011;6120;52.250;8.478;2023-03-23T08:57:20;7.80;;;2.40;;
12112;SDS011;6120;52.250;8.478;2023-03-23T08:59:46;5.60;;;2.13;;
12112;SDS011;6120;52.250;8.478;2023-03-23T09:02:12;6.70;;;2.33;;
12112;SDS011;6120;52.250;8.478;2023-03-23T09:04:38;4.70;;;2.20;;
12112;SDS011;6120;52.250;8.478;2023-03-23T09:07:04;8.43;;;2.65;;
12112;SDS011;6120;52.250;8.478;2023-03-23T09:09:30;6.03;;;2.63;;
12112;SDS011;6120;52.250;8.478;2023-03-23T09:11:55;6.95;;;2.35;;
12112;SDS011;6120;52.250;8.478;2023-03-23T09:14:21;4.95;;;2.30;;
12112;SDS011;6120;52.250;8.478;2023-03-23T09:16:47;7.13;;;2.42;;
12112;SDS011;6120;52.250;8.478;2023-03-23T09:19:12;5.68;;;2.30;;
12112;SDS011;6120;52.250;8.478;2023-03-23T09:21:38;5.78;;;2.17;;
12112;SDS011;6120;52.250;8.478;2023-03-23T09:24:03;5.45;;;2.03;;
12112;SDS011;6120;52.250;8.478;2023-03-23T09:26:30;8.48;;;2.40;;
12112;SDS011;6120;52.250;8.478;2023-03-23T09:28:55;4.60;;;2.13;;
12112;SDS011;6120;52.250;8.478;2023-03-23T09:31:22;5.65;;;2.38;;
12112;SDS011;6120;52.250;8.478;2023-03-23T09:33:48;8.63;;;2.63;;
12112;SDS011;6120;52.250;8.478;2023-03-23T09:36:17;8.60;;;2.28;;
12112;SDS011;6120;52.250;8.478;2023-03-23T09:38:46;6.80;;;2.35;;
12112;SDS011;6120;52.250;8.478;2023-03-23T09:44:38;7.65;;;2.72;;
12112;SDS011;6120;52.250;8.478;2023-03-23T09:47:25;7.28;;;2.22;;
12112;SDS011;6120;52.250;8.478;2023-03-23T09:50:00;6.72;;;2.00;;
12112;SDS011;6120;52.250;8.478;2023-03-23T09:52:39;7.13;;;2.17;;
12112;SDS011;6120;52.250;8.478;2023-03-23T09:55:07;8.43;;;2.60;;
12112;SDS011;6120;52.250;8.478;2023-03-23T09:57:39;8.65;;;2.20;;
12112;SDS011;6120;52.250;8.478;2023-03-23T10:00:22;4.38;;;1.73;;
12112;SDS011;6120;52.250;8.478;2023-03-23T10:03:10;7.97;;;2.33;;
12112;SDS011;6120;52.250;8.478;2023-03-23T10:05:41;7.43;;;2.58;;
12112;SDS011;6120;52.250;8.478;2023-03-23T10:08:11;7.03;;;2.78;;
12112;SDS011;6120;52.250;8.478;2023-03-23T10:11:26;7.40;;;2.13;;
12112;SDS011;6120;52.250;8.478;2023-03-23T10:22:48;6.88;;;2.60;;
12112;SDS011;6120;52.250;8.478;2023-03-23T10:25:19;10.77;;;2.75;;
12112;SDS011;6120;52.250;8.478;2023-03-23T10:28:05;6.47;;;2.40;;
12112;SDS011;6120;52.250;8.478;2023-03-23T10:30:46;10.55;;;3.00;;
12112;SDS011;6120;52.250;8.478;2023-03-23T10:33:37;11.35;;;3.35;;
12112;SDS011;6120;52.250;8.478;2023-03-23T10:36:10;10.00;;;2.85;;
12112;SDS011;6120;52.250;8.478;2023-03-23T10:38:42;11.65;;;3.53;;
12112;SDS011;6120;52.250;8.478;2023-03-23T10:41:13;9.57;;;3.25;;
12112;SDS011;6120;52.250;8.478;2023-03-23T10:43:41;12.73;;;3.63;;
12112;SDS011;6120;52.250;8.478;2023-03-23T10:46:16;8.10;;;3.45;;
12112;SDS011;6120;52.250;8.478;2023-03-23T10:48:48;10.60;;;3.13;;
12112;SDS011;6120;52.250;8.478;2023-03-23T10:51:15;7.25;;;3.05;;
12112;SDS011;6120;52.250;8.478;2023-03-23T10:53:44;10.10;;;3.33;;
12112;SDS011;6120;52.250;8.478;2023-03-23T10:56:29;7.40;;;3.08;;
12112;SDS011;6120;52.250;8.478;2023-03-23T10:59:10;8.88;;;3.58;;
12112;SDS011;6120;52.250;8.478;2023-03-23T11:01:42;8.18;;;3.10;;
12112;SDS011;6120;52.250;8.478;2023-03-23T11:04:11;9.77;;;3.28;;
12112;SDS011;6120;52.250;8.478;2023-03-23T11:06:38;9.88;;;3.05;;
12112;SDS011;6120;52.250;8.478;2023-03-23T11:09:14;5.82;;;2.20;;
12112;SDS011;6120;52.250;8.478;2023-03-23T11:11:43;5.05;;;1.52;;
12112;SDS011;6120;52.250;8.478;2023-03-23T11:14:18;5.40;;;1.63;;
12112;SDS011;6120;52.250;8.478;2023-03-23T11:16:54;3.63;;;1.55;;
12112;SDS011;6120;52.250;8.478;2023-03-23T11:19:31;3.55;;;1.33;;
12112;SDS011;6120;52.250;8.478;2023-03-23T11:22:08;4.22;;;1.63;;
12112;SDS011;6120;52.250;8.478;2023-03-23T11:24:41;3.47;;;1.48;;
12112;SDS011;6120;52.250;8.478;2023-03-23T11:29:47;2.55;;;0.90;;
12112;SDS011;6120;52.250;8.478;2023-03-23T11:32:14;4.25;;;1.17;;
12112;SDS011;6120;52.250;8.478;2023-03-23T11:34:42;4.22;;;0.90;;
12112;SDS011;6120;52.250;8.478;2023-03-23T11:37:14;1.38;;;0.98;;
12112;SDS011;6120;52.250;8.478;2023-03-23T11:40:14;3.45;;;1.02;;
12112;SDS011;6120;52.250;8.478;2023-03-23T11:42:45;2.38;;;0.77;;
12112;SDS011;6120;52.250;8.478;2023-03-23T11:45:17;3.10;;;1.27;;
12112;SDS011;6120;52.250;8.478;2023-03-23T11:50:44;2.72;;;0.95;;
12112;SDS011;6120;52.250;8.478;2023-03-23T11:58:35;2.67;;;1.00;;
12112;SDS011;6120;52.250;8.478;2023-03-23T12:01:06;2.17;;;0.65;;
12112;SDS011;6120;52.250;8.478;2023-03-23T12:06:07;2.58;;;1.10;;
12112;SDS011;6120;52.250;8.478;2023-03-23T12:11:31;2.33;;;0.82;;
12112;SDS011;6120;52.250;8.478;2023-03-23T12:14:02;1.23;;;0.75;;
12112;SDS011;6120;52.250;8.478;2023-03-23T12:19:23;2.15;;;0.73;;
12112;SDS011;6120;52.250;8.478;2023-03-23T12:22:08;3.53;;;0.93;;
12112;SDS011;6120;52.250;8.478;2023-03-23T12:44:04;2.88;;;0.80;;
12112;SDS011;6120;52.250;8.478;2023-03-23T12:52:01;1.80;;;0.70;;
12112;SDS011;6120;52.250;8.478;2023-03-23T12:57:19;3.25;;;0.85;;
12112;SDS011;6120;52.250;8.478;2023-03-23T12:59:54;2.40;;;0.80;;
12112;SDS011;6120;52.250;8.478;2023-03-23T13:07:47;3.90;;;0.80;;
12112;SDS011;6120;52.250;8.478;2023-03-23T13:10:20;2.70;;;0.60;;
12112;SDS011;6120;52.250;8.478;2023-03-23T13:12:48;3.63;;;0.90;;
12112;SDS011;6120;52.250;8.478;2023-03-23T13:17:48;5.05;;;1.08;;
12112;SDS011;6120;52.250;8.478;2023-03-23T13:26:01;4.15;;;1.58;;
12112;SDS011;6120;52.250;8.478;2023-03-23T13:28:32;5.95;;;1.20;;
12112;SDS011;6120;52.250;8.478;2023-03-23T13:31:13;3.60;;;1.08;;
12112;SDS011;6120;52.250;8.478;2023-03-23T13:33:51;3.15;;;1.05;;
12112;SDS011;6120;52.250;8.478;2023-03-23T13:36:52;3.17;;;1.13;;
12112;SDS011;6120;52.250;8.478;2023-03-23T13:39:23;5.30;;;1.05;;
12112;SDS011;6120;52.250;8.478;2023-03-23T13:42:02;4.47;;;0.85;;
12112;SDS011;6120;52.250;8.478;2023-03-23T13:47:35;3.47;;;1.10;;
12112;SDS011;6120;52.250;8.478;2023-03-23T13:50:23;4.18;;;1.15;;
12112;SDS011;6120;52.250;8.478;2023-03-23T13:52:53;4.68;;;1.30;;
12112;SDS011;6120;52.250;8.478;2023-03-23T13:57:55;3.85;;;1.30;;
12112;SDS011;6120;52.250;8.478;2023-03-23T14:05:36;3.15;;;0.90;;
12112;SDS011;6120;52.250;8.478;2023-03-23T14:10:52;2.20;;;0.95;;
12112;SDS011;6120;52.250;8.478;2023-03-23T14:13:29;2.72;;;1.10;;
12112;SDS011;6120;52.250;8.478;2023-03-23T14:16:00;2.33;;;1.30;;
12112;SDS011;6120;52.250;8.478;2023-03-23T14:18:37;5.10;;;1.50;;
12112;SDS011;6120;52.250;8.478;2023-03-23T14:21:04;2.95;;;1.50;;
12112;SDS011;6120;52.250;8.478;2023-03-23T14:23:31;6.03;;;1.88;;
12112;SDS011;6120;52.250;8.478;2023-03-23T14:25:59;4.85;;;1.90;;
12112;SDS011;6120;52.250;8.478;2023-03-23T14:28:43;2.92;;;1.73;;
12112;SDS011;6120;52.250;8.478;2023-03-23T14:31:14;2.03;;;1.33;;
12112;SDS011;6120;52.250;8.478;2023-03-23T14:33:45;2.22;;;1.52;;
12112;SDS011;6120;52.250;8.478;2023-03-23T14:36:13;3.10;;;1.87;;
12112;SDS011;6120;52.250;8.478;2023-03-23T14:38:44;3.17;;;1.90;;
12112;SDS011;6120;52.250;8.478;2023-03-23T14:41:10;6.88;;;2.75;;
12112;SDS011;6120;52.250;8.478;2023-03-23T14:43:36;4.63;;;2.30;;
12112;SDS011;6120;52.250;8.478;2023-03-23T14:46:05;3.47;;;2.33;;
12112;SDS011;6120;52.250;8.478;2023-03-23T14:48:32;5.43;;;2.20;;
12112;SDS011;6120;52.250;8.478;2023-03-23T14:50:58;4.07;;;2.85;;
12112;SDS011;6120;52.250;8.478;2023-03-23T14:56:01;8.20;;;2.85;;
12112;SDS011;6120;52.250;8.478;2023-03-23T14:58:30;5.32;;;3.22;;
12112;SDS011;6120;52.250;8.478;2023-03-23T15:00:59;3.38;;;2.47;;
12112;SDS011;6120;52.250;8.478;2023-03-23T15:03:30;3.92;;;3.00;;
12112;SDS011;6120;52.250;8.478;2023-03-23T15:06:01;6.05;;;3.30;;
12112;SDS011;6120;52.250;8.478;2023-03-23T15:08:31;5.15;;;3.65;;
12112;SDS011;6120;52.250;8.478;2023-03-23T15:13:27;5.97;;;4.65;;
12112;SDS011;6120;52.250;8.478;2023-03-23T15:16:00;7.60;;;4.30;;
12112;SDS011;6120;52.250;8.478;2023-03-23T15:18:33;7.13;;;4.60;;
12112;SDS011;6120;52.250;8.478;2023-03-23T15:21:07;7.15;;;4.70;;
12112;SDS011;6120;52.250;8.478;2023-03-23T15:23:34;9.30;;;4.50;;
12112;SDS011;6120;52.250;8.478;2023-03-23T15:26:06;6.13;;;4.10;;
12112;SDS011;6120;52.250;8.478;2023-03-23T15:28:39;6.53;;;4.22;;
12112;SDS011;6120;52.250;8.478;2023-03-23T15:31:05;7.00;;;4.35;;
12112;SDS011;6120;52.250;8.478;2023-03-23T15:33:35;7.05;;;4.30;;
12112;SDS011;6120;52.250;8.478;2023-03-23T15:36:05;7.72;;;4.00;;
12112;SDS011;6120;52.250;8.478;2023-03-23T15:38:33;6.15;;;3.80;;
12112;SDS011;6120;52.250;8.478;2023-03-23T15:41:04;4.55;;;3.22;;
12112;SDS011;6120;52.250;8.478;2023-03-23T15:46:03;6.00;;;3.47;;
12112;SDS011;6120;52.250;8.478;2023-03-23T15:48:33;6.07;;;3.50;;
12112;SDS011;6120;52.250;8.478;2023-03-23T15:51:11;5.30;;;3.58;;
12112;SDS011;6120;52.250;8.478;2023-03-23T15:53:38;8.65;;;3.60;;
12112;SDS011;6120;52.250;8.478;2023-03-23T15:56:04;10.00;;;3.33;;
12112;SDS011;6120;52.250;8.478;2023-03-23T15:58:31;7.43;;;3.60;;
12112;SDS011;6120;52.250;8.478;2023-03-23T16:00:59;6.10;;;3.40;;
12112;SDS011;6120;52.250;8.478;2023-03-23T16:03:30;6.70;;;3.53;;
12112;SDS011;6120;52.250;8.478;2023-03-23T16:06:09;6.32;;;4.20;;
12112;SDS011;6120;52.250;8.478;2023-03-23T16:08:48;7.50;;;4.47;;
12112;SDS011;6120;52.250;8.478;2023-03-23T16:11:20;6.70;;;4.50;;
12112;SDS011;6120;52.250;8.478;2023-03-23T16:13:48;7.43;;;4.40;;
12112;SDS011;6120;52.250;8.478;2023-03-23T16:16:19;7.47;;;5.20;;
12112;SDS011;6120;52.250;8.478;2023-03-23T16:18:48;7.60;;;5.47;;
12112;SDS011;6120;52.250;8.478;2023-03-23T16:21:14;8.60;;;5.55;;
12112;SDS011;6120;52.250;8.478;2023-03-23T16:23:41;9.25;;;5.55;;
12112;SDS011;6120;52.250;8.478;2023-03-23T16:26:12;9.00;;;5.20;;
12112;SDS011;6120;52.250;8.478;2023-03-23T16:28:40;7.93;;;4.85;;
12112;SDS011;6120;52.250;8.478;2023-03-23T16:31:07;8.02;;;4.88;;
12112;SDS011;6120;52.250;8.478;2023-03-23T16:33:33;9.82;;;5.10;;
12112;SDS011;6120;52.250;8.478;2023-03-23T16:36:00;5.50;;;3.90;;
12112;SDS011;6120;52.250;8.478;2023-03-23T16:38:28;8.93;;;4.20;;
12112;SDS011;6120;52.250;8.478;2023-03-23T16:40:54;7.30;;;4.05;;
12112;SDS011;6120;52.250;8.478;2023-03-23T16:43:21;6.05;;;3.17;;
12112;SDS011;6120;52.250;8.478;2023-03-23T16:45:48;10.82;;;3.60;;
12112;SDS011;6120;52.250;8.478;2023-03-23T16:48:15;6.90;;;3.45;;
12112;SDS011;6120;52.250;8.478;2023-03-23T16:50:42;5.57;;;3.08;;
12112;SDS011;6120;52.250;8.478;2023-03-23T16:53:09;7.25;;;3.50;;
12112;SDS011;6120;52.250;8.478;2023-03-23T16:55:37;5.43;;;3.05;;
12112;SDS011;6120;52.250;8.478;2023-03-23T16:58:04;10.53;;;3.03;;
12112;SDS011;6120;52.250;8.478;2023-03-23T17:00:42;5.70;;;3.50;;
12112;SDS011;6120;52.250;8.478;2023-03-23T17:03:10;7.80;;;3.00;;
12112;SDS011;6120;52.250;8.478;2023-03-23T17:05:38;7.05;;;3.17;;
12112;SDS011;6120;52.250;8.478;2023-03-23T17:08:06;7.50;;;3.22;;
12112;SDS011;6120;52.250;8.478;2023-03-23T17:10:32;6.97;;;3.33;;
12112;SDS011;6120;52.250;8.478;2023-03-23T17:12:59;8.65;;;3.33;;
12112;SDS011;6120;52.250;8.478;2023-03-23T17:15:27;6.63;;;2.97;;
12112;SDS011;6120;52.250;8.478;2023-03-23T17:17:53;9.90;;;3.15;;